Time;durP1;ratioP1;P1;durP2;ratioP2;P2;SDS_P1;SDS_P2;PMS_P1;PMS_P2;Temp;Humidity;BMP_temperature;BMP_pressure;BME280_temperature;BME280_humidity;BME280_pressure;Samples;Min_cycle;Max_cycle;Signal;HPM_P1;HPM_P2
2023/08/10 00:00:24;;;;;;;7.30;4.25;;;16.20;84.70;;;14.93;100.00;96351.53;4947707;28;20059;-61
2023/08/10 00:02:51;;;;;;;4.72;4.03;;;16.20;84.60;;;14.92;100.00;96360.53;4947669;28;20110;-61
2023/08/10 00:05:17;;;;;;;4.25;3.83;;;16.30;84.70;;;14.91;100.00;96358.91;4930256;28;20063;-62
2023/08/10 00:07:42;;;;;;;4.05;3.65;;;16.20;84.80;;;14.89;100.00;96358.28;4942700;28;20043;-61
2023/08/10 00:10:08;;;;;;;5.75;4.10;;;16.20;84.90;;;14.87;100.00;96363.00;4945374;28;20130;-61
2023/08/10 00:12:36;;;;;;;6.68;4.30;;;16.20;84.90;;;14.86;100.00;96356.06;4945232;28;20061;-63
2023/08/10 00:15:02;;;;;;;4.65;4.13;;;16.20;85.00;;;14.83;100.00;96353.84;4929449;29;20414;-62
2023/08/10 00:17:29;;;;;;;4.43;4.00;;;16.10;85.10;;;14.82;100.00;96357.50;4913892;28;20426;-62
2023/08/10 00:19:54;;;;;;;4.63;3.92;;;16.10;85.10;;;14.80;100.00;96357.72;4927845;29;20039;-62
2023/08/10 00:22:20;;;;;;;4.18;3.78;;;16.00;85.10;;;14.77;100.00;96360.78;4944860;28;20061;-62
2023/08/10 00:24:47;;;;;;;5.07;4.00;;;16.00;85.10;;;14.74;100.00;96363.06;4944595;28;20031;-62
2023/08/10 00:27:12;;;;;;;4.38;3.97;;;16.00;84.90;;;14.68;100.00;96360.19;4920165;29;20043;-62
2023/08/10 00:29:38;;;;;;;4.80;4.38;;;16.00;85.00;;;14.65;100.00;96360.59;4912126;28;20035;-62
2023/08/10 00:32:04;;;;;;;4.93;4.22;;;15.90;85.20;;;14.63;100.00;96367.13;4930192;29;20167;-62
2023/08/10 00:34:30;;;;;;;5.75;4.60;;;15.90;85.40;;;14.60;100.00;96357.78;4928188;29;20142;-62
2023/08/10 00:36:55;;;;;;;5.60;4.40;;;15.90;85.60;;;14.58;100.00;96356.38;4944715;28;20074;-62
2023/08/10 00:39:21;;;;;;;5.15;4.65;;;15.90;85.60;;;14.58;100.00;96354.53;4944892;28;20098;-63
2023/08/10 00:41:47;;;;;;;5.30;4.80;;;15.90;85.70;;;14.58;100.00;96357.16;4945437;28;20101;-62
2023/08/10 00:44:13;;;;;;;6.97;5.45;;;15.90;85.70;;;14.57;100.00;96354.75;4926254;29;20099;-62
2023/08/10 00:46:39;;;;;;;11.10;6.40;;;15.90;85.60;;;14.57;100.00;96357.38;4939766;28;20039;-62
2023/08/10 00:49:05;;;;;;;6.00;5.40;;;15.80;85.50;;;14.54;100.00;96353.31;4913586;29;20036;-62
2023/08/10 00:51:31;;;;;;;6.30;5.70;;;15.80;85.50;;;14.51;100.00;96345.78;4929520;28;20400;-62
2023/08/10 00:53:56;;;;;;;7.00;5.53;;;15.80;85.40;;;14.49;100.00;96345.19;4930308;29;20031;-62
2023/08/10 00:56:22;;;;;;;6.53;5.40;;;15.80;85.50;;;14.47;100.00;96336.63;4945908;28;20059;-62
2023/08/10 00:58:49;;;;;;;6.63;6.03;;;15.70;85.40;;;14.45;100.00;96337.84;4927402;28;20641;-62
2023/08/10 01:01:14;;;;;;;6.68;5.95;;;15.70;85.40;;;14.43;100.00;96340.69;4906944;29;20506;-62
2023/08/10 01:03:40;;;;;;;7.72;6.72;;;15.70;85.40;;;14.41;100.00;96342.72;4945091;28;20039;-62
2023/08/10 01:06:18;;;;;;;7.63;6.38;;;15.70;85.30;;;14.39;100.00;96344.75;4928664;29;20027;-62
2023/08/10 01:09:11;;;;;;;7.40;6.70;;;15.70;85.20;;;14.36;100.00;96353.13;4942505;28;20078;-62
2023/08/10 01:11:41;;;;;;;6.97;6.10;;;15.70;85.40;;;14.32;100.00;96343.97;4928811;28;20039;-62
2023/08/10 01:14:32;;;;;;;7.22;6.45;;;15.60;85.50;;;14.31;100.00;96350.28;4943655;28;20042;-63
2023/08/10 01:16:58;;;;;;;8.18;6.88;;;15.60;85.50;;;14.27;100.00;96357.00;4930422;29;20219;-62
2023/08/10 01:19:35;;;;;;;7.65;6.88;;;15.60;85.70;;;14.25;100.00;96377.53;4926473;28;20044;-62
2023/08/10 01:22:35;;;;;;;7.20;6.35;;;15.60;85.70;;;14.21;100.00;96374.50;4930534;28;20058;-62
2023/08/10 01:25:08;;;;;;;11.27;7.17;;;15.50;85.80;;;14.18;100.00;96368.81;4945918;28;20463;-62
2023/08/10 01:27:34;;;;;;;22.45;6.82;;;15.50;85.90;;;14.16;100.00;96376.13;4931297;28;20050;-62
2023/08/10 01:30:00;;;;;;;9.10;7.25;;;15.50;85.90;;;14.15;100.00;96375.31;4927789;29;20024;-62
2023/08/10 01:32:30;;;;;;;7.00;6.30;;;15.50;86.00;;;14.16;100.00;96376.94;4930779;29;20114;-62
2023/08/10 01:34:56;;;;;;;7.93;6.47;;;15.50;85.90;;;14.14;100.00;96376.34;4945432;28;20562;-63
2023/08/10 01:37:22;;;;;;;8.55;6.82;;;15.50;86.00;;;14.12;100.00;96374.91;4945514;28;20035;-62
2023/08/10 01:39:48;;;;;;;8.15;6.20;;;15.50;86.10;;;14.12;100.00;96388.97;4947416;28;20039;-62
2023/08/10 01:42:14;;;;;;;8.32;6.20;;;15.50;86.10;;;14.06;100.00;96387.13;4931497;29;20046;-62
2023/08/10 01:44:40;;;;;;;6.72;5.47;;;15.40;86.00;;;14.02;100.00;96394.63;4948773;28;20082;-62
2023/08/10 01:47:18;;;;;;;4.90;4.40;;;15.40;86.00;;;14.03;100.00;96396.28;4949792;28;20067;-62
2023/08/10 01:49:44;;;;;;;5.22;4.63;;;15.40;86.00;;;14.00;100.00;96388.72;4944706;28;20653;-62
2023/08/10 01:52:09;;;;;;;28.60;4.53;;;15.40;86.10;;;14.00;100.00;96394.03;4934482;29;20067;-62
2023/08/10 01:54:36;;;;;;;6.20;4.80;;;15.30;86.20;;;13.99;100.00;96392.41;4933386;28;20474;-62
2023/08/10 01:57:02;;;;;;;7.75;4.47;;;15.30;86.20;;;14.01;100.00;96394.84;4933556;29;20422;-62
2023/08/10 01:59:28;;;;;;;4.75;4.35;;;15.30;86.10;;;14.00;100.00;96394.03;4949744;28;20036;-62
2023/08/10 02:01:55;;;;;;;6.03;4.22;;;15.40;86.10;;;14.01;100.00;96403.59;4933002;28;20054;-62
2023/08/10 02:04:21;;;;;;;7.93;3.60;;;15.40;86.10;;;14.01;100.00;96392.19;4928941;29;20396;-62
2023/08/10 02:06:47;;;;;;;4.03;3.67;;;15.40;86.20;;;14.02;100.00;96394.63;4947880;28;20283;-62
2023/08/10 02:09:13;;;;;;;4.53;4.13;;;15.40;86.10;;;14.02;100.00;96386.69;4950464;28;20057;-62
2023/08/10 02:11:39;;;;;;;4.80;4.40;;;15.40;86.10;;;14.02;100.00;96386.69;4933663;28;20063;-62
2023/08/10 02:14:04;;;;;;;4.80;4.32;;;15.40;86.20;;;14.03;100.00;96385.72;4949031;28;20059;-61
2023/08/10 02:16:30;;;;;;;4.95;4.55;;;15.50;86.20;;;14.05;100.00;96382.88;4948949;28;20166;-61
2023/08/10 02:18:56;;;;;;;5.32;4.82;;;15.50;86.20;;;14.04;100.00;96384.69;4950211;28;20058;-61
2023/08/10 02:21:26;;;;;;;5.30;4.90;;;15.50;86.40;;;14.07;100.00;96388.75;4942912;28;20066;-61
2023/08/10 02:23:52;;;;;;;5.05;4.65;;;15.50;86.40;;;14.08;100.00;96379.81;4949834;28;20515;-61
2023/08/10 02:26:18;;;;;;;5.13;4.63;;;15.50;86.40;;;14.09;100.00;96387.53;4916512;29;20090;-61
2023/08/10 02:28:43;;;;;;;5.78;5.28;;;15.50;86.40;;;14.10;100.00;96391.81;4948713;28;20127;-63
2023/08/10 02:31:09;;;;;;;6.30;5.60;;;15.50;86.60;;;14.14;100.00;96389.56;4949747;28;20070;-60
2023/08/10 02:33:35;;;;;;;9.45;6.85;;;15.50;86.50;;;14.15;100.00;96387.72;4948131;28;20130;-61
2023/08/10 02:36:01;;;;;;;7.68;6.97;;;15.60;86.40;;;14.15;100.00;96390.38;4948510;28;20035;-60
2023/08/10 02:38:26;;;;;;;7.00;6.30;;;15.60;86.50;;;14.15;100.00;96393.03;4940310;29;20101;-60
2023/08/10 02:40:52;;;;;;;7.60;6.90;;;15.60;86.30;;;14.15;100.00;96395.66;4948401;28;20514;-60
2023/08/10 02:43:18;;;;;;;7.03;6.43;;;15.60;86.30;;;14.16;100.00;96386.72;4948114;28;20066;-60
2023/08/10 02:45:44;;;;;;;8.60;6.35;;;15.60;86.20;;;14.17;100.00;96391.81;4946249;28;20039;-61
2023/08/10 02:48:10;;;;;;;6.63;6.03;;;15.60;86.10;;;14.19;100.00;96388.94;4948404;28;20058;-61
2023/08/10 02:50:35;;;;;;;6.80;6.20;;;15.60;86.10;;;14.20;100.00;96395.88;4928341;29;20040;-60
2023/08/10 02:53:01;;;;;;;6.78;6.07;;;15.60;86.20;;;14.19;100.00;96396.88;4929515;28;20166;-61
2023/08/10 02:55:27;;;;;;;6.68;6.07;;;15.60;86.10;;;14.19;100.00;96402.19;4948086;28;20043;-62
2023/08/10 02:57:53;;;;;;;6.95;6.28;;;15.60;86.10;;;14.17;100.00;96401.56;4946733;28;20039;-61
2023/08/10 03:00:20;;;;;;;6.78;6.18;;;15.60;85.90;;;14.18;100.00;96405.84;4915476;29;20117;-61
2023/08/10 03:02:50;;;;;;;7.57;6.38;;;15.60;85.90;;;14.17;100.00;96399.72;4945413;28;20035;-61
2023/08/10 03:05:19;;;;;;;6.57;5.80;;;15.60;85.90;;;14.17;100.00;96409.50;4931959;29;20031;-61
2023/08/10 03:07:45;;;;;;;6.55;5.68;;;15.60;85.90;;;14.17;100.00;96404.22;4948221;28;20126;-61
2023/08/10 03:10:11;;;;;;;6.60;5.70;;;15.60;86.00;;;14.15;100.00;96412.34;4947980;28;20042;-61
2023/08/10 03:12:37;;;;;;;6.57;5.97;;;15.60;86.00;;;14.14;100.00;96408.09;4930281;29;20035;-62
2023/08/10 03:15:05;;;;;;;12.98;10.05;;;15.50;85.90;;;14.16;100.00;96407.88;4948947;28;20629;-62
2023/08/10 03:17:31;;;;;;;11.75;10.55;;;15.60;86.10;;;14.16;100.00;96398.09;4947530;28;20522;-61
2023/08/10 03:19:57;;;;;;;10.48;9.52;;;15.60;86.20;;;14.19;100.00;96404.81;4950520;28;20130;-63
2023/08/10 03:22:25;;;;;;;10.25;9.23;;;15.60;86.30;;;14.19;100.00;96396.88;4933586;29;20086;-61
2023/08/10 03:24:52;;;;;;;18.35;16.42;;;15.60;86.10;;;14.20;100.00;96398.50;4947622;28;20065;-61
2023/08/10 03:27:17;;;;;;;11.20;10.07;;;15.60;86.10;;;14.19;100.00;96412.75;4947459;28;20035;-61
2023/08/10 03:29:43;;;;;;;11.18;9.98;;;15.60;86.00;;;14.18;100.00;96403.19;4948699;28;20515;-61
2023/08/10 03:32:09;;;;;;;13.27;12.05;;;15.50;86.20;;;14.15;100.00;96407.06;4948643;28;20054;-61
2023/08/10 03:34:35;;;;;;;16.50;14.80;;;15.50;86.30;;;14.14;100.00;96409.91;4948535;28;20070;-62
2023/08/10 03:37:02;;;;;;;12.95;11.57;;;15.50;86.30;;;14.12;100.00;96418.06;4948708;28;20486;-61
2023/08/10 03:39:27;;;;;;;11.73;10.63;;;15.50;86.00;;;14.09;100.00;96424.56;4946511;28;20039;-61
2023/08/10 03:41:53;;;;;;;12.80;11.50;;;15.50;85.90;;;14.05;100.00;96418.06;4931182;28;20059;-69
2023/08/10 03:44:19;;;;;;;13.25;11.95;;;15.40;85.90;;;14.03;100.00;96413.97;4942181;28;20034;-67
2023/08/10 03:46:45;;;;;;;14.55;13.05;;;15.40;86.00;;;14.00;100.00;96420.47;4940273;28;20542;-66
2023/08/10 03:49:10;;;;;;;19.20;14.18;;;15.40;86.10;;;13.98;100.00;96417.22;4928478;29;20063;-61
2023/08/10 03:51:36;;;;;;;20.35;15.07;;;15.40;86.10;;;13.95;100.00;96416.81;4928814;28;20039;-67
2023/08/10 03:54:02;;;;;;;19.27;13.25;;;15.20;86.20;;;13.93;100.00;96422.31;4945804;28;20063;-61
2023/08/10 03:56:28;;;;;;;13.95;11.82;;;15.20;86.20;;;13.92;100.00;96427.81;4941451;28;20114;-62
2023/08/10 03:58:53;;;;;;;12.68;11.45;;;15.20;86.10;;;13.89;100.00;96434.31;4946849;28;20077;-60
2023/08/10 04:01:19;;;;;;;12.80;11.57;;;15.20;86.10;;;13.86;100.00;96429.44;4941926;28;20067;-61
2023/08/10 04:03:45;;;;;;;11.85;10.63;;;15.20;86.20;;;13.85;100.00;96440.22;4929516;29;20066;-61
2023/08/10 04:06:11;;;;;;;11.68;10.50;;;15.10;86.00;;;13.82;100.00;96436.13;4945095;28;20059;-61
2023/08/10 04:08:36;;;;;;;13.52;11.18;;;15.20;85.90;;;13.79;100.00;96433.88;4947815;28;20050;-61
2023/08/10 04:11:02;;;;;;;12.98;11.77;;;15.20;86.00;;;13.78;100.00;96434.88;4941924;28;20128;-61
2023/08/10 04:13:28;;;;;;;28.23;24.10;;;15.20;86.10;;;13.77;100.00;96446.47;4947206;28;20137;-62
2023/08/10 04:15:53;;;;;;;15.85;13.90;;;15.20;86.10;;;13.75;100.00;96446.69;4943589;28;20055;-61
2023/08/10 04:18:19;;;;;;;14.27;12.77;;;15.20;86.00;;;13.77;100.00;96446.47;4946098;28;20059;-61
2023/08/10 04:20:45;;;;;;;16.23;13.30;;;15.20;86.00;;;13.78;100.00;96442.81;4944750;28;20133;-61
2023/08/10 04:23:11;;;;;;;13.75;12.35;;;15.20;86.00;;;13.77;100.00;96451.75;4930593;28;20035;-62
2023/08/10 04:25:37;;;;;;;14.63;12.18;;;15.20;86.00;;;13.77;100.00;96452.59;4940306;28;20095;-61
2023/08/10 04:28:03;;;;;;;20.95;16.98;;;15.20;85.90;;;13.77;100.00;96452.59;4945604;28;20058;-61
2023/08/10 04:30:29;;;;;;;16.65;14.30;;;15.20;85.90;;;13.78;100.00;96454.22;4947235;28;20509;-62
2023/08/10 04:32:56;;;;;;;14.70;13.23;;;15.20;85.70;;;13.81;100.00;96457.50;4926664;29;20114;-62
2023/08/10 04:35:23;;;;;;;13.75;12.45;;;15.30;85.70;;;13.81;100.00;96460.13;4945113;28;20038;-63
2023/08/10 04:37:49;;;;;;;13.60;12.27;;;15.30;85.60;;;13.83;100.00;96458.09;4941051;28;20039;-63
2023/08/10 04:40:15;;;;;;;17.33;13.50;;;15.30;85.60;;;13.82;100.00;96467.88;4930245;29;20032;-63
2023/08/10 04:42:40;;;;;;;14.50;12.63;;;15.30;85.70;;;13.82;100.00;96469.69;4926121;29;20496;-66
2023/08/10 04:45:09;;;;;;;14.20;12.85;;;15.20;85.70;;;13.79;100.00;96463.78;4940593;28;20055;-66
2023/08/10 04:47:35;;;;;;;15.25;12.98;;;15.30;85.70;;;13.81;100.00;96466.25;4925129;28;20113;-68
2023/08/10 04:50:02;;;;;;;14.90;13.38;;;15.20;85.70;;;13.80;100.00;96461.94;4930411;28;20708;-67
2023/08/10 04:52:28;;;;;;;15.00;13.50;;;15.20;85.70;;;13.80;100.00;96461.94;4938544;28;20044;-67
2023/08/10 04:54:54;;;;;;;14.43;12.95;;;15.30;85.80;;;13.81;100.00;96463.59;4941801;28;20047;-64
2023/08/10 04:57:20;;;;;;;14.52;13.13;;;15.30;85.80;;;13.81;100.00;96460.94;4943424;28;20164;-63
2023/08/10 04:59:49;;;;;;;17.48;14.45;;;15.30;85.80;;;13.83;100.00;96464.22;4927494;29;20048;-63
2023/08/10 05:02:14;;;;;;;13.57;12.25;;;15.30;85.90;;;13.83;100.00;96466.03;4941724;28;20035;-63
2023/08/10 05:04:40;;;;;;;15.05;13.35;;;15.20;85.90;;;13.84;100.00;96463.19;4943871;28;20059;-62
2023/08/10 05:07:06;;;;;;;13.77;12.40;;;15.30;85.90;;;13.85;100.00;96464.81;4940548;28;20077;-65
2023/08/10 05:09:32;;;;;;;14.77;13.07;;;15.40;85.80;;;13.88;100.00;96469.72;4937528;28;20070;-64
2023/08/10 05:11:58;;;;;;;17.77;12.95;;;15.40;85.90;;;13.90;100.00;96461.56;4938761;28;21283;-67
2023/08/10 05:14:23;;;;;;;15.68;12.40;;;15.50;85.80;;;13.93;100.00;96467.25;4945163;28;20093;-64
2023/08/10 05:16:49;;;;;;;15.82;14.18;;;15.50;85.70;;;13.94;100.00;96471.53;4948096;28;20411;-65
2023/08/10 05:19:15;;;;;;;18.70;16.63;;;15.50;85.80;;;13.96;100.00;96476.63;4931292;28;20127;-64
2023/08/10 05:21:41;;;;;;;18.35;16.33;;;15.50;85.90;;;13.96;100.00;96469.50;4932024;29;20593;-71
2023/08/10 05:24:09;;;;;;;17.65;15.85;;;15.50;85.90;;;13.98;100.00;96474.59;4912401;28;20114;-67
2023/08/10 05:26:35;;;;;;;15.68;13.95;;;15.60;85.90;;;14.00;100.00;96478.66;4944687;28;20054;-64
2023/08/10 05:29:00;;;;;;;15.88;14.18;;;15.60;85.80;;;14.03;100.00;96485.38;4945683;28;20094;-63
2023/08/10 05:31:26;;;;;;;13.40;12.07;;;15.60;86.00;;;14.07;100.00;96484.00;4948278;28;20470;-69
2023/08/10 05:33:52;;;;;;;14.02;12.63;;;15.60;85.90;;;14.10;100.00;96488.88;4949635;28;20570;-67
2023/08/10 05:36:17;;;;;;;14.50;13.00;;;15.60;85.90;;;14.13;100.00;96488.47;4945832;28;20035;-64
2023/08/10 05:38:43;;;;;;;12.20;10.90;;;15.70;85.90;;;14.19;100.00;96489.47;4929278;29;20114;-63
2023/08/10 05:41:09;;;;;;;12.20;10.90;;;15.70;85.50;;;14.24;100.00;96492.34;4930330;28;20066;-68
2023/08/10 05:43:35;;;;;;;13.10;11.70;;;15.90;85.50;;;14.29;100.00;96497.84;4930262;28;20106;-63
2023/08/10 05:46:01;;;;;;;11.27;10.15;;;16.00;85.40;;;14.36;100.00;96488.09;4944593;28;20063;-63
2023/08/10 05:48:27;;;;;;;12.80;10.75;;;16.10;85.10;;;14.44;100.00;96487.91;4929650;29;20040;-62
2023/08/10 05:50:52;;;;;;;11.23;9.50;;;16.20;85.10;;;14.51;100.00;96490.56;4947664;28;20047;-63
2023/08/10 05:53:18;;;;;;;9.93;9.02;;;16.30;84.60;;;14.61;100.00;96490.97;4946763;28;20857;-63
2023/08/10 05:55:44;;;;;;;9.77;8.35;;;16.50;84.40;;;14.69;100.00;96488.91;4947507;28;20901;-62
2023/08/10 05:58:10;;;;;;;8.13;7.32;;;16.60;83.90;;;14.81;100.00;96488.31;4947815;28;20066;-62
2023/08/10 06:00:36;;;;;;;9.70;7.70;;;16.70;83.20;;;14.90;100.00;96495.00;4948168;28;20122;-62
2023/08/10 06:03:05;;;;;;;10.15;9.15;;;16.80;82.60;;;15.01;100.00;96491.75;4948778;28;20122;-63
2023/08/10 06:05:32;;;;;;;7.70;6.72;;;16.90;82.20;;;15.10;100.00;96487.03;4949332;28;20217;-63
2023/08/10 06:07:58;;;;;;;7.10;6.38;;;17.10;81.20;;;15.21;100.00;96489.84;4944167;28;20066;-63
2023/08/10 06:10:25;;;;;;;8.13;6.53;;;17.20;81.40;;;15.35;100.00;96492.44;4940943;28;20039;-62
2023/08/10 06:12:50;;;;;;;6.38;5.75;;;17.40;81.30;;;15.46;100.00;96494.47;4931102;29;20035;-64
2023/08/10 06:15:16;;;;;;;6.20;5.60;;;17.50;80.20;;;15.56;100.00;96495.63;4942115;28;20075;-63
2023/08/10 06:17:42;;;;;;;5.93;5.30;;;17.60;79.80;;;15.70;100.00;96496.44;4946568;28;20059;-62
2023/08/10 06:20:09;;;;;;;5.38;4.80;;;17.90;78.90;;;15.81;100.00;96493.09;4913161;28;20616;-62
2023/08/10 06:22:37;;;;;;;6.80;5.22;;;18.00;77.90;;;15.93;100.00;96496.72;4945090;28;20118;-62
2023/08/10 06:25:04;;;;;;;5.70;5.20;;;18.20;77.80;;;16.06;100.00;96492.34;4910255;28;20594;-65
2023/08/10 06:27:31;;;;;;;5.50;4.55;;;18.40;76.90;;;16.19;100.00;96489.63;4940886;28;20039;-63
2023/08/10 06:29:57;;;;;;;7.63;6.85;;;18.50;76.30;;;16.30;100.00;96498.75;4946576;28;20535;-63
2023/08/10 06:32:23;;;;;;;9.10;7.90;;;18.60;76.80;;;16.41;100.00;96490.91;4910864;28;20046;-65
2023/08/10 06:34:48;;;;;;;4.65;3.92;;;18.90;75.00;;;16.49;100.00;96493.28;4945994;28;20062;-63
2023/08/10 06:37:16;;;;;;;5.75;4.57;;;18.80;71.50;;;16.56;100.00;96495.09;4943110;28;20071;-62
2023/08/10 06:39:42;;;;;;;4.18;3.78;;;19.00;72.90;;;16.68;100.00;96502.16;4943373;28;20442;-61
2023/08/10 06:42:08;;;;;;;4.50;3.90;;;19.20;72.30;;;16.78;100.00;96501.69;4942403;28;20042;-62
2023/08/10 06:44:34;;;;;;;5.85;3.80;;;19.40;71.90;;;16.82;100.00;96494.88;4928020;28;20063;-62
2023/08/10 06:47:00;;;;;;;6.78;3.17;;;19.50;70.10;;;16.94;100.00;96509.06;4941154;28;20056;-62
2023/08/10 06:49:25;;;;;;;3.13;2.53;;;19.70;68.70;;;17.06;100.00;96506.53;4945295;28;20125;-63
2023/08/10 06:51:51;;;;;;;3.83;2.58;;;20.00;67.40;;;17.17;100.00;96507.63;4953669;28;20055;-61
2023/08/10 06:54:17;;;;;;;3.80;2.75;;;20.10;68.00;;;17.24;100.00;96508.41;4947384;28;20506;-62
2023/08/10 06:56:43;;;;;;;6.38;2.88;;;20.20;66.10;;;17.34;100.00;96508.69;4927489;29;20056;-62
2023/08/10 06:59:09;;;;;;;4.60;2.65;;;20.10;66.70;;;17.40;100.00;96502.47;4940301;28;20067;-63
2023/08/10 07:01:35;;;;;;;3.08;2.47;;;20.20;66.20;;;17.49;100.00;96500.34;4943281;28;20086;-62
2023/08/10 07:04:00;;;;;;;4.57;2.10;;;20.60;64.00;;;17.56;100.00;96507.19;4943268;28;20126;-62
2023/08/10 07:06:27;;;;;;;3.10;2.45;;;20.60;66.60;;;17.67;100.00;96508.31;4941740;28;20047;-62
2023/08/10 07:08:53;;;;;;;3.17;2.17;;;20.60;66.10;;;17.78;100.00;96506.78;4942332;28;20027;-62
2023/08/10 07:11:21;;;;;;;4.07;2.50;;;20.60;63.70;;;17.86;100.00;96506.44;4928904;28;20067;-62
2023/08/10 07:13:48;;;;;;;2.25;1.67;;;20.80;62.10;;;17.92;100.00;96510.91;4945624;28;20046;-62
2023/08/10 07:16:15;;;;;;;2.70;1.77;;;21.00;61.50;;;18.02;100.00;96511.16;4947585;28;20035;-63
2023/08/10 07:18:41;;;;;;;3.67;1.98;;;21.10;60.70;;;18.10;100.00;96513.50;4930595;29;20574;-64
2023/08/10 07:21:06;;;;;;;2.40;1.67;;;21.00;63.00;;;18.18;100.00;96515.84;4944483;28;20039;-63
2023/08/10 07:23:32;;;;;;;3.50;2.20;;;21.00;62.20;;;18.25;98.74;96513.91;4928507;28;20055;-63
2023/08/10 07:25:58;;;;;;;5.25;3.78;;;21.10;61.30;;;18.35;98.76;96513.38;4943932;28;20031;-65
2023/08/10 07:28:24;;;;;;;2.75;2.10;;;21.30;61.30;;;18.47;99.89;96513.38;4941687;28;20118;-63
2023/08/10 07:31:02;;;;;;;2.42;1.85;;;21.60;62.10;;;18.59;97.17;96509.72;4946564;28;20119;-63
2023/08/10 07:33:28;;;;;;;3.22;1.60;;;21.70;62.20;;;18.75;97.70;96521.56;4945859;28;20074;-63
2023/08/10 07:35:54;;;;;;;3.72;1.60;;;22.00;60.60;;;18.92;96.41;96516.38;4946994;28;20906;-62
2023/08/10 07:38:20;;;;;;;2.50;1.45;;;22.30;58.80;;;19.11;93.13;96519.75;4944032;28;20409;-63
2023/08/10 07:40:45;;;;;;;1.75;1.42;;;22.70;56.00;;;19.31;91.72;96508.72;4930572;29;20070;-64
2023/08/10 07:43:11;;;;;;;2.42;1.35;;;23.00;54.90;;;19.51;89.77;96512.63;4945319;28;20075;-63
2023/08/10 07:45:37;;;;;;;3.05;1.63;;;23.30;54.70;;;19.71;90.59;96514.13;4947010;28;20122;-63
2023/08/10 07:48:03;;;;;;;3.88;1.50;;;23.70;55.50;;;19.90;88.93;96512.91;4932068;29;20027;-63
2023/08/10 07:50:29;;;;;;;5.45;1.20;;;23.90;53.20;;;20.08;87.20;96511.91;4931961;28;20057;-63
2023/08/10 07:52:54;;;;;;;3.17;1.30;;;24.30;52.30;;;20.34;86.55;96519.34;4945032;28;20031;-63
2023/08/10 07:55:20;;;;;;;3.45;1.20;;;24.70;51.70;;;20.55;83.58;96515.19;4950976;28;20387;-63
2023/08/10 07:57:46;;;;;;;1.58;1.20;;;24.80;49.10;;;20.72;81.65;96516.00;4945746;28;20084;-63
2023/08/10 08:00:13;;;;;;;1.95;1.10;;;25.10;48.60;;;20.94;79.96;96518.75;4930279;28;20702;-64
2023/08/10 08:02:39;;;;;;;2.17;1.20;;;25.30;47.10;;;21.17;77.59;96512.41;4929884;29;20047;-63
2023/08/10 08:05:06;;;;;;;1.48;1.00;;;25.50;45.80;;;21.40;77.66;96509.56;4945616;28;20203;-63
2023/08/10 08:07:32;;;;;;;1.60;1.00;;;25.90;47.00;;;21.67;77.86;96516.88;4939744;28;20078;-64
2023/08/10 08:09:58;;;;;;;1.70;0.93;;;26.10;47.50;;;21.93;73.15;96510.75;4925856;29;20209;-64
2023/08/10 08:12:26;;;;;;;1.25;0.90;;;26.30;42.90;;;22.19;74.33;96508.41;4945382;28;20035;-63
2023/08/10 08:14:52;;;;;;;3.33;1.00;;;26.70;45.70;;;22.45;70.94;96502.22;4931522;29;20402;-63
2023/08/10 08:17:19;;;;;;;1.40;0.90;;;26.70;43.00;;;22.68;69.38;96500.28;4935135;28;20071;-63
2023/08/10 08:19:44;;;;;;;1.70;0.88;;;27.00;42.50;;;22.89;69.94;96510.13;4928716;29;20470;-63
2023/08/10 08:22:10;;;;;;;2.10;0.95;;;27.20;44.10;;;23.08;65.83;96489.06;4929855;29;20035;-63
2023/08/10 08:24:36;;;;;;;1.92;0.80;;;27.20;39.00;;;23.30;64.90;96494.28;4927263;28;20089;-63
2023/08/10 08:27:02;;;;;;;4.05;0.80;;;27.60;40.60;;;23.44;62.06;96480.16;4924297;29;20424;-63
2023/08/10 08:29:27;;;;;;;3.42;0.75;;;27.50;37.40;;;23.58;60.13;96467.09;4943116;28;20864;-63
2023/08/10 08:31:53;;;;;;;2.45;1.00;;;27.70;36.90;;;23.75;62.24;96481.09;4945066;28;20110;-62
2023/08/10 08:34:19;;;;;;;1.52;0.80;;;28.10;40.20;;;23.97;62.11;96485.47;4943394;28;20070;-63
2023/08/10 08:36:48;;;;;;;1.90;0.85;;;28.40;39.50;;;24.11;58.26;96459.72;4920873;28;20039;-62
2023/08/10 08:39:13;;;;;;;2.95;0.90;;;28.40;35.00;;;24.26;57.05;96461.66;4947945;28;20058;-65
2023/08/10 08:41:40;;;;;;;1.92;0.90;;;28.50;35.90;;;24.45;57.89;96470.03;4979884;28;20054;-62
2023/08/10 08:44:07;;;;;;;1.73;0.90;;;28.80;38.30;;;24.64;57.75;96468.41;4926105;28;20491;-62
2023/08/10 08:46:33;;;;;;;2.28;0.93;;;29.10;37.90;;;24.79;56.66;96473.78;4952643;28;20053;-62
2023/08/10 08:49:02;;;;;;;2.17;0.80;;;29.10;36.30;;;24.92;55.73;96459.81;4949076;28;20035;-62
2023/08/10 08:51:28;;;;;;;2.28;1.08;;;29.30;38.30;;;25.10;56.14;96465.69;4946278;28;20042;-63
2023/08/10 08:53:53;;;;;;;1.25;0.60;;;29.50;36.60;;;25.24;55.74;96467.56;4952237;28;20273;-63
2023/08/10 08:56:19;;;;;;;1.00;0.70;;;29.50;36.80;;;25.42;56.82;96479.66;4951383;28;20506;-63
2023/08/10 08:58:45;;;;;;;1.33;0.80;;;29.70;39.20;;;25.57;55.29;96466.13;4949566;28;20054;-61
2023/08/10 09:01:12;;;;;;;2.72;0.98;;;29.80;36.50;;;25.70;53.16;96456.66;4958395;28;20074;-63
2023/08/10 09:03:38;;;;;;;1.27;0.80;;;29.80;35.10;;;25.85;52.02;96445.03;4950295;28;20149;-63
2023/08/10 09:06:04;;;;;;;1.67;0.90;;;30.00;33.90;;;25.94;50.37;96437.94;4966989;28;20120;-62
2023/08/10 09:08:30;;;;;;;1.10;0.80;;;29.70;32.80;;;25.98;49.36;96433.63;4948804;28;20190;-62
2023/08/10 09:10:55;;;;;;;0.90;0.65;;;29.80;33.30;;;26.07;48.55;96428.47;4933625;29;20122;-62
2023/08/10 09:13:22;;;;;;;1.38;0.80;;;30.00;32.90;;;26.16;48.41;96435.66;4945414;28;20641;-66
2023/08/10 09:16:09;;;;;;;1.70;0.70;;;30.10;33.90;;;26.36;46.61;96412.38;4965701;28;20311;-63
2023/08/10 09:18:37;;;;;;;1.63;0.73;;;30.40;35.10;;;26.54;48.69;96438.66;4964043;28;20048;-63
2023/08/10 09:21:23;;;;;;;0.68;0.57;;;30.50;33.20;;;26.68;43.33;96377.53;4949190;28;20465;-63
2023/08/10 09:23:53;;;;;;;1.67;0.80;;;30.50;32.20;;;26.82;43.17;96383.09;4968732;28;20491;-63
2023/08/10 09:26:20;;;;;;;;;;;30.70;30.90;;;26.95;42.12;96376.22;4967102;28;20141;-65
2023/08/10 09:28:50;;;;;;;1.05;0.70;;;31.00;31.70;;;27.10;45.51;96403.88;4951850;28;20667;-64
2023/08/10 09:31:26;;;;;;;1.48;0.80;;;31.10;33.40;;;27.36;43.45;96381.97;4967214;28;20129;-67
2023/08/10 09:34:03;;;;;;;1.63;0.93;;;31.40;32.90;;;27.61;43.33;96372.72;4968413;28;20034;-64
2023/08/10 09:36:29;;;;;;;1.42;0.60;;;31.60;32.10;;;27.78;46.64;96413.63;4949278;28;20077;-63
2023/08/10 09:38:55;;;;;;;3.55;0.80;;;31.70;32.00;;;27.93;45.23;96408.00;4967033;28;20027;-64
2023/08/10 09:41:22;;;;;;;1.10;0.80;;;32.00;31.50;;;28.10;43.73;96396.69;4950825;28;20085;-64
2023/08/10 09:43:48;;;;;;;70.85;8.63;;;32.20;29.80;;;28.23;43.01;96395.13;4951088;28;20031;-63
2023/08/10 09:46:14;;;;;;;26.63;4.38;;;32.30;30.10;;;28.34;42.99;96391.22;4950333;28;20063;-64
2023/08/10 09:48:42;;;;;;;18.02;2.58;;;32.50;30.60;;;28.52;42.50;96384.97;4964049;28;20039;-65
2023/08/10 09:51:09;;;;;;;5.00;1.45;;;32.60;30.00;;;28.62;41.59;96382.06;4966751;28;20063;-64
2023/08/10 09:53:35;;;;;;;2.22;1.10;;;32.70;29.60;;;28.69;39.85;96360.00;4963808;28;20043;-65
2023/08/10 09:56:02;;;;;;;0.98;0.70;;;32.80;27.20;;;28.78;40.42;96368.25;4970778;28;20038;-64
2023/08/10 09:58:28;;;;;;;1.58;0.82;;;32.90;29.00;;;28.97;38.98;96350.06;4969446;28;20058;-64
2023/08/10 10:00:53;;;;;;;14.65;2.95;;;33.40;27.60;;;29.11;39.01;96350.84;4965469;28;20031;-67
2023/08/10 10:03:20;;;;;;;6.93;1.50;;;33.90;26.80;;;29.31;39.07;96360.50;4958374;28;20034;-68
2023/08/10 10:05:47;;;;;;;5.00;1.40;;;34.20;28.70;;;29.54;40.42;96369.53;4952519;28;20749;-67
2023/08/10 10:08:12;;;;;;;1.50;0.90;;;34.60;28.50;;;29.77;40.90;96382.03;4963269;28;20031;-67